sensor_id;sensor_type;location;lat;lon;timestamp;P1;durP1;ratioP1;P2;durP2;ratioP2
15230;SDS011;32569;51.762;8.564;2024-02-21T00:00:33;4.40;;;3.60;;
15230;SDS011;32569;51.762;8.564;2024-02-21T00:03:00;3.20;;;2.97;;
15230;SDS011;32569;51.762;8.564;2024-02-21T00:05:30;3.57;;;3.27;;
15230;SDS011;32569;51.762;8.564;2024-02-21T00:07:58;3.47;;;3.17;;
15230;SDS011;32569;51.762;8.564;2024-02-21T00:10:25;3.40;;;3.13;;
15230;SDS011;32569;51.762;8.564;2024-02-21T00:12:53;3.73;;;3.37;;
15230;SDS011;32569;51.762;8.564;2024-02-21T00:15:19;3.47;;;3.17;;
15230;SDS011;32569;51.762;8.564;2024-02-21T00:17:46;3.20;;;2.90;;
15230;SDS011;32569;51.762;8.564;2024-02-21T00:20:13;3.63;;;3.33;;
15230;SDS011;32569;51.762;8.564;2024-02-21T00:22:40;3.47;;;3.27;;
15230;SDS011;32569;51.762;8.564;2024-02-21T00:25:07;3.83;;;3.53;;
15230;SDS011;32569;51.762;8.564;2024-02-21T00:27:34;3.63;;;3.30;;
15230;SDS011;32569;51.762;8.564;2024-02-21T00:30:02;3.77;;;3.47;;
15230;SDS011;32569;51.762;8.564;2024-02-21T00:32:29;4.13;;;3.83;;
15230;SDS011;32569;51.762;8.564;2024-02-21T00:34:57;3.57;;;3.37;;
15230;SDS011;32569;51.762;8.564;2024-02-21T00:37:29;3.80;;;3.50;;
15230;SDS011;32569;51.762;8.564;2024-02-21T00:39:58;3.93;;;3.63;;
15230;SDS011;32569;51.762;8.564;2024-02-21T00:42:25;3.47;;;3.10;;
15230;SDS011;32569;51.762;8.564;2024-02-21T00:44:51;4.63;;;4.33;;
15230;SDS011;32569;51.762;8.564;2024-02-21T00:47:22;3.30;;;3.10;;
15230;SDS011;32569;51.762;8.564;2024-02-21T00:49:49;4.00;;;3.63;;
15230;SDS011;32569;51.762;8.564;2024-02-21T00:52:15;4.07;;;3.77;;
15230;SDS011;32569;51.762;8.564;2024-02-21T00:54:42;4.60;;;4.07;;
15230;SDS011;32569;51.762;8.564;2024-02-21T00:57:12;3.60;;;3.30;;
15230;SDS011;32569;51.762;8.564;2024-02-21T00:59:38;3.90;;;3.60;;
15230;SDS011;32569;51.762;8.564;2024-02-21T01:02:06;3.63;;;3.40;;
15230;SDS011;32569;51.762;8.564;2024-02-21T01:04:35;3.73;;;3.43;;
15230;SDS011;32569;51.762;8.564;2024-02-21T01:07:02;3.83;;;3.43;;
15230;SDS011;32569;51.762;8.564;2024-02-21T01:09:29;4.30;;;4.00;;
15230;SDS011;32569;51.762;8.564;2024-02-21T01:11:55;3.70;;;3.40;;
15230;SDS011;32569;51.762;8.564;2024-02-21T01:14:25;3.97;;;3.67;;
15230;SDS011;32569;51.762;8.564;2024-02-21T01:16:52;3.60;;;3.40;;
15230;SDS011;32569;51.762;8.564;2024-02-21T01:19:19;3.93;;;3.60;;
15230;SDS011;32569;51.762;8.564;2024-02-21T01:21:53;4.00;;;3.60;;
15230;SDS011;32569;51.762;8.564;2024-02-21T01:24:19;4.27;;;3.97;;
15230;SDS011;32569;51.762;8.564;2024-02-21T01:26:46;4.37;;;3.90;;
15230;SDS011;32569;51.762;8.564;2024-02-21T01:29:16;4.30;;;4.00;;
15230;SDS011;32569;51.762;8.564;2024-02-21T01:31:43;4.40;;;4.00;;
15230;SDS011;32569;51.762;8.564;2024-02-21T01:34:16;4.53;;;4.23;;
15230;SDS011;32569;51.762;8.564;2024-02-21T01:36:42;4.80;;;4.20;;
15230;SDS011;32569;51.762;8.564;2024-02-21T01:39:10;4.23;;;3.90;;
15230;SDS011;32569;51.762;8.564;2024-02-21T01:41:37;3.90;;;3.67;;
15230;SDS011;32569;51.762;8.564;2024-02-21T01:44:04;3.90;;;3.60;;
15230;SDS011;32569;51.762;8.564;2024-02-21T01:46:30;4.57;;;4.17;;
15230;SDS011;32569;51.762;8.564;2024-02-21T01:48:57;3.50;;;3.30;;
15230;SDS011;32569;51.762;8.564;2024-02-21T01:51:24;3.90;;;3.70;;
15230;SDS011;32569;51.762;8.564;2024-02-21T01:53:51;3.90;;;3.60;;
15230;SDS011;32569;51.762;8.564;2024-02-21T01:56:21;4.13;;;3.83;;
15230;SDS011;32569;51.762;8.564;2024-02-21T01:58:48;3.90;;;3.60;;
15230;SDS011;32569;51.762;8.564;2024-02-21T02:01:15;4.47;;;4.10;;
15230;SDS011;32569;51.762;8.564;2024-02-21T02:03:42;4.13;;;3.77;;
15230;SDS011;32569;51.762;8.564;2024-02-21T02:06:14;4.07;;;3.77;;
15230;SDS011;32569;51.762;8.564;2024-02-21T02:08:41;4.17;;;3.83;;
15230;SDS011;32569;51.762;8.564;2024-02-21T02:11:13;4.23;;;3.97;;
15230;SDS011;32569;51.762;8.564;2024-02-21T02:13:41;3.57;;;3.37;;
15230;SDS011;32569;51.762;8.564;2024-02-21T02:16:07;3.80;;;3.53;;
15230;SDS011;32569;51.762;8.564;2024-02-21T02:18:34;4.03;;;3.73;;
15230;SDS011;32569;51.762;8.564;2024-02-21T02:21:04;3.73;;;3.43;;
15230;SDS011;32569;51.762;8.564;2024-02-21T02:23:38;4.37;;;4.07;;
15230;SDS011;32569;51.762;8.564;2024-02-21T02:26:05;4.37;;;4.07;;
15230;SDS011;32569;51.762;8.564;2024-02-21T02:28:32;4.40;;;4.10;;
15230;SDS011;32569;51.762;8.564;2024-02-21T02:30:59;3.87;;;3.57;;
15230;SDS011;32569;51.762;8.564;2024-02-21T02:33:26;3.40;;;3.20;;
15230;SDS011;32569;51.762;8.564;2024-02-21T02:35:52;3.60;;;3.33;;
15230;SDS011;32569;51.762;8.564;2024-02-21T02:38:19;3.87;;;3.60;;
15230;SDS011;32569;51.762;8.564;2024-02-21T02:40:47;3.83;;;3.60;;
15230;SDS011;32569;51.762;8.564;2024-02-21T02:43:13;3.50;;;3.30;;
15230;SDS011;32569;51.762;8.564;2024-02-21T02:45:40;3.40;;;3.10;;
15230;SDS011;32569;51.762;8.564;2024-02-21T02:48:07;3.77;;;3.50;;
15230;SDS011;32569;51.762;8.564;2024-02-21T02:50:34;3.17;;;2.97;;
15230;SDS011;32569;51.762;8.564;2024-02-21T02:53:00;3.80;;;3.50;;
15230;SDS011;32569;51.762;8.564;2024-02-21T02:55:27;3.73;;;3.43;;
15230;SDS011;32569;51.762;8.564;2024-02-21T02:57:55;3.77;;;3.50;;
15230;SDS011;32569;51.762;8.564;2024-02-21T03:00:22;3.40;;;3.17;;
15230;SDS011;32569;51.762;8.564;2024-02-21T03:02:49;3.87;;;3.67;;
15230;SDS011;32569;51.762;8.564;2024-02-21T03:05:17;3.90;;;3.60;;
15230;SDS011;32569;51.762;8.564;2024-02-21T03:07:45;3.30;;;3.10;;
15230;SDS011;32569;51.762;8.564;2024-02-21T03:10:12;3.70;;;3.50;;
15230;SDS011;32569;51.762;8.564;2024-02-21T03:12:41;3.53;;;3.33;;
15230;SDS011;32569;51.762;8.564;2024-02-21T03:15:09;3.83;;;3.63;;
15230;SDS011;32569;51.762;8.564;2024-02-21T03:17:39;4.07;;;3.77;;
15230;SDS011;32569;51.762;8.564;2024-02-21T03:20:06;3.53;;;3.33;;
15230;SDS011;32569;51.762;8.564;2024-02-21T03:22:35;3.60;;;3.40;;
15230;SDS011;32569;51.762;8.564;2024-02-21T03:25:01;4.20;;;3.60;;
15230;SDS011;32569;51.762;8.564;2024-02-21T03:27:28;3.43;;;3.13;;
15230;SDS011;32569;51.762;8.564;2024-02-21T03:29:55;3.50;;;3.20;;
15230;SDS011;32569;51.762;8.564;2024-02-21T03:32:23;3.67;;;3.37;;
15230;SDS011;32569;51.762;8.564;2024-02-21T03:34:52;3.20;;;3.00;;
15230;SDS011;32569;51.762;8.564;2024-02-21T03:37:19;3.47;;;3.17;;
15230;SDS011;32569;51.762;8.564;2024-02-21T03:39:46;3.30;;;3.10;;
15230;SDS011;32569;51.762;8.564;2024-02-21T03:42:15;3.53;;;3.33;;
15230;SDS011;32569;51.762;8.564;2024-02-21T03:44:42;3.40;;;3.10;;
15230;SDS011;32569;51.762;8.564;2024-02-21T03:47:09;3.53;;;3.20;;
15230;SDS011;32569;51.762;8.564;2024-02-21T03:49:37;3.23;;;3.03;;
15230;SDS011;32569;51.762;8.564;2024-02-21T03:52:04;3.37;;;3.17;;
15230;SDS011;32569;51.762;8.564;2024-02-21T03:54:31;3.30;;;3.10;;
15230;SDS011;32569;51.762;8.564;2024-02-21T03:56:58;3.40;;;3.13;;
15230;SDS011;32569;51.762;8.564;2024-02-21T03:59:27;2.87;;;2.70;;
15230;SDS011;32569;51.762;8.564;2024-02-21T04:01:54;3.33;;;3.13;;
15230;SDS011;32569;51.762;8.564;2024-02-21T04:04:21;3.37;;;3.07;;
15230;SDS011;32569;51.762;8.564;2024-02-21T04:06:49;3.23;;;3.00;;
15230;SDS011;32569;51.762;8.564;2024-02-21T04:09:16;3.53;;;3.23;;
15230;SDS011;32569;51.762;8.564;2024-02-21T04:11:44;2.93;;;2.73;;
15230;SDS011;32569;51.762;8.564;2024-02-21T04:14:10;3.20;;;3.00;;
15230;SDS011;32569;51.762;8.564;2024-02-21T04:16:37;3.00;;;2.80;;
15230;SDS011;32569;51.762;8.564;2024-02-21T04:19:04;2.93;;;2.73;;
15230;SDS011;32569;51.762;8.564;2024-02-21T04:21:31;3.67;;;3.20;;
15230;SDS011;32569;51.762;8.564;2024-02-21T04:23:58;3.20;;;3.00;;
15230;SDS011;32569;51.762;8.564;2024-02-21T04:26:26;3.03;;;2.83;;
15230;SDS011;32569;51.762;8.564;2024-02-21T04:28:56;2.70;;;2.60;;
15230;SDS011;32569;51.762;8.564;2024-02-21T04:31:25;3.20;;;3.00;;
15230;SDS011;32569;51.762;8.564;2024-02-21T04:33:52;2.90;;;2.70;;
15230;SDS011;32569;51.762;8.564;2024-02-21T04:36:19;2.87;;;2.67;;
15230;SDS011;32569;51.762;8.564;2024-02-21T04:38:45;2.97;;;2.77;;
15230;SDS011;32569;51.762;8.564;2024-02-21T04:41:13;2.43;;;2.30;;
15230;SDS011;32569;51.762;8.564;2024-02-21T04:43:40;2.67;;;2.57;;
15230;SDS011;32569;51.762;8.564;2024-02-21T04:46:06;3.23;;;3.03;;
15230;SDS011;32569;51.762;8.564;2024-02-21T04:48:33;2.73;;;2.60;;
15230;SDS011;32569;51.762;8.564;2024-02-21T04:51:00;2.57;;;2.43;;
15230;SDS011;32569;51.762;8.564;2024-02-21T04:53:26;2.87;;;2.67;;
15230;SDS011;32569;51.762;8.564;2024-02-21T04:55:53;2.57;;;2.37;;
15230;SDS011;32569;51.762;8.564;2024-02-21T04:58:21;3.00;;;2.80;;
15230;SDS011;32569;51.762;8.564;2024-02-21T05:00:48;3.00;;;2.70;;
15230;SDS011;32569;51.762;8.564;2024-02-21T05:03:17;2.87;;;2.67;;
15230;SDS011;32569;51.762;8.564;2024-02-21T05:05:44;2.90;;;2.70;;
15230;SDS011;32569;51.762;8.564;2024-02-21T05:08:11;2.90;;;2.70;;
15230;SDS011;32569;51.762;8.564;2024-02-21T05:10:38;2.57;;;2.37;;
15230;SDS011;32569;51.762;8.564;2024-02-21T05:13:04;3.23;;;2.93;;
15230;SDS011;32569;51.762;8.564;2024-02-21T05:15:32;2.80;;;2.60;;
15230;SDS011;32569;51.762;8.564;2024-02-21T05:17:59;3.30;;;2.43;;
15230;SDS011;32569;51.762;8.564;2024-02-21T05:20:25;2.70;;;2.50;;
15230;SDS011;32569;51.762;8.564;2024-02-21T05:22:52;3.40;;;2.60;;
15230;SDS011;32569;51.762;8.564;2024-02-21T05:25:19;2.83;;;2.63;;
15230;SDS011;32569;51.762;8.564;2024-02-21T05:27:45;2.70;;;2.50;;
15230;SDS011;32569;51.762;8.564;2024-02-21T05:30:13;2.70;;;2.50;;
15230;SDS011;32569;51.762;8.564;2024-02-21T05:32:41;2.50;;;2.40;;
15230;SDS011;32569;51.762;8.564;2024-02-21T05:35:07;2.70;;;2.50;;
15230;SDS011;32569;51.762;8.564;2024-02-21T05:37:34;2.60;;;2.40;;
15230;SDS011;32569;51.762;8.564;2024-02-21T05:40:01;2.83;;;2.63;;
15230;SDS011;32569;51.762;8.564;2024-02-21T05:42:28;3.00;;;2.80;;
15230;SDS011;32569;51.762;8.564;2024-02-21T05:44:54;2.87;;;2.67;;
15230;SDS011;32569;51.762;8.564;2024-02-21T05:47:21;2.67;;;2.47;;
15230;SDS011;32569;51.762;8.564;2024-02-21T05:49:49;2.83;;;2.63;;
15230;SDS011;32569;51.762;8.564;2024-02-21T05:52:18;2.90;;;2.70;;
15230;SDS011;32569;51.762;8.564;2024-02-21T05:54:45;2.87;;;2.67;;
15230;SDS011;32569;51.762;8.564;2024-02-21T05:57:12;2.90;;;2.70;;
15230;SDS011;32569;51.762;8.564;2024-02-21T05:59:38;2.87;;;2.63;;
15230;SDS011;32569;51.762;8.564;2024-02-21T06:02:07;3.00;;;2.70;;
15230;SDS011;32569;51.762;8.564;2024-02-21T06:04:44;3.07;;;2.87;;
15230;SDS011;32569;51.762;8.564;2024-02-21T06:07:12;3.17;;;2.70;;
15230;SDS011;32569;51.762;8.564;2024-02-21T06:09:39;3.00;;;2.80;;
15230;SDS011;32569;51.762;8.564;2024-02-21T06:12:06;3.30;;;2.73;;
15230;SDS011;32569;51.762;8.564;2024-02-21T06:14:33;2.53;;;2.33;;
15230;SDS011;32569;51.762;8.564;2024-02-21T06:16:59;2.77;;;2.57;;
15230;SDS011;32569;51.762;8.564;2024-02-21T06:19:26;2.67;;;2.47;;
15230;SDS011;32569;51.762;8.564;2024-02-21T06:21:52;3.07;;;2.87;;
15230;SDS011;32569;51.762;8.564;2024-02-21T06:24:20;2.93;;;2.73;;
15230;SDS011;32569;51.762;8.564;2024-02-21T06:26:46;2.80;;;2.60;;
15230;SDS011;32569;51.762;8.564;2024-02-21T06:29:13;2.80;;;2.60;;
15230;SDS011;32569;51.762;8.564;2024-02-21T06:31:40;2.90;;;2.70;;
15230;SDS011;32569;51.762;8.564;2024-02-21T06:34:07;2.97;;;2.77;;
15230;SDS011;32569;51.762;8.564;2024-02-21T06:36:33;2.97;;;2.77;;
15230;SDS011;32569;51.762;8.564;2024-02-21T06:39:00;3.20;;;2.90;;
15230;SDS011;32569;51.762;8.564;2024-02-21T06:41:31;2.97;;;2.77;;
15230;SDS011;32569;51.762;8.564;2024-02-21T06:43:59;3.23;;;3.03;;
15230;SDS011;32569;51.762;8.564;2024-02-21T06:46:26;2.97;;;2.77;;
15230;SDS011;32569;51.762;8.564;2024-02-21T06:48:54;3.27;;;2.93;;
15230;SDS011;32569;51.762;8.564;2024-02-21T06:51:21;3.17;;;2.97;;
15230;SDS011;32569;51.762;8.564;2024-02-21T06:53:48;2.70;;;2.50;;
15230;SDS011;32569;51.762;8.564;2024-02-21T06:56:14;3.47;;;3.17;;
15230;SDS011;32569;51.762;8.564;2024-02-21T06:58:45;3.20;;;3.00;;
15230;SDS011;32569;51.762;8.564;2024-02-21T07:01:12;3.20;;;2.90;;
15230;SDS011;32569;51.762;8.564;2024-02-21T07:03:39;3.17;;;2.90;;
15230;SDS011;32569;51.762;8.564;2024-02-21T07:06:06;2.93;;;2.73;;
15230;SDS011;32569;51.762;8.564;2024-02-21T07:08:32;3.23;;;2.97;;
15230;SDS011;32569;51.762;8.564;2024-02-21T07:10:59;2.93;;;2.73;;
15230;SDS011;32569;51.762;8.564;2024-02-21T07:13:25;2.90;;;2.70;;
15230;SDS011;32569;51.762;8.564;2024-02-21T07:15:53;2.70;;;2.50;;
15230;SDS011;32569;51.762;8.564;2024-02-21T07:18:20;3.07;;;2.77;;
15230;SDS011;32569;51.762;8.564;2024-02-21T07:20:47;2.83;;;2.63;;
15230;SDS011;32569;51.762;8.564;2024-02-21T07:23:13;2.83;;;2.63;;
15230;SDS011;32569;51.762;8.564;2024-02-21T07:25:55;3.07;;;2.80;;
15230;SDS011;32569;51.762;8.564;2024-02-21T07:28:22;2.97;;;2.77;;
15230;SDS011;32569;51.762;8.564;2024-02-21T07:30:49;3.00;;;2.73;;
15230;SDS011;32569;51.762;8.564;2024-02-21T07:33:17;2.97;;;2.67;;
15230;SDS011;32569;51.762;8.564;2024-02-21T07:35:43;2.80;;;2.60;;
15230;SDS011;32569;51.762;8.564;2024-02-21T07:38:10;2.93;;;2.73;;
15230;SDS011;32569;51.762;8.564;2024-02-21T07:40:37;2.70;;;2.50;;
15230;SDS011;32569;51.762;8.564;2024-02-21T07:43:12;2.93;;;2.73;;
15230;SDS011;32569;51.762;8.564;2024-02-21T07:45:38;2.30;;;2.13;;
15230;SDS011;32569;51.762;8.564;2024-02-21T07:48:05;2.90;;;2.70;;
15230;SDS011;32569;51.762;8.564;2024-02-21T07:50:33;2.77;;;2.57;;
15230;SDS011;32569;51.762;8.564;2024-02-21T07:53:00;2.83;;;2.63;;
15230;SDS011;32569;51.762;8.564;2024-02-21T07:55:27;2.80;;;2.60;;
15230;SDS011;32569;51.762;8.564;2024-02-21T07:57:53;2.17;;;2.07;;
15230;SDS011;32569;51.762;8.564;2024-02-21T08:00:20;2.90;;;2.70;;
15230;SDS011;32569;51.762;8.564;2024-02-21T08:02:50;2.70;;;2.50;;
15230;SDS011;32569;51.762;8.564;2024-02-21T08:05:17;2.67;;;2.47;;
15230;SDS011;32569;51.762;8.564;2024-02-21T08:07:45;2.57;;;2.37;;
15230;SDS011;32569;51.762;8.564;2024-02-21T08:10:12;2.20;;;2.10;;
15230;SDS011;32569;51.762;8.564;2024-02-21T08:12:38;2.30;;;2.10;;
15230;SDS011;32569;51.762;8.564;2024-02-21T08:15:08;2.40;;;2.20;;
15230;SDS011;32569;51.762;8.564;2024-02-21T08:17:36;2.03;;;1.93;;
15230;SDS011;32569;51.762;8.564;2024-02-21T08:20:03;2.27;;;2.17;;
15230;SDS011;32569;51.762;8.564;2024-02-21T08:22:31;2.27;;;2.17;;
15230;SDS011;32569;51.762;8.564;2024-02-21T08:24:59;2.63;;;2.43;;
15230;SDS011;32569;51.762;8.564;2024-02-21T08:27:26;2.30;;;2.10;;
15230;SDS011;32569;51.762;8.564;2024-02-21T08:29:51;2.20;;;2.10;;
15230;SDS011;32569;51.762;8.564;2024-02-21T08:32:18;2.17;;;2.07;;
15230;SDS011;32569;51.762;8.564;2024-02-21T08:34:44;2.10;;;2.00;;
15230;SDS011;32569;51.762;8.564;2024-02-21T08:37:11;2.53;;;2.40;;
15230;SDS011;32569;51.762;8.564;2024-02-21T08:39:38;2.00;;;1.90;;
15230;SDS011;32569;51.762;8.564;2024-02-21T08:42:06;1.93;;;1.83;;
15230;SDS011;32569;51.762;8.564;2024-02-21T08:44:33;2.27;;;2.13;;
15230;SDS011;32569;51.762;8.564;2024-02-21T08:46:59;2.00;;;1.90;;
15230;SDS011;32569;51.762;8.564;2024-02-21T08:49:28;2.03;;;1.93;;
15230;SDS011;32569;51.762;8.564;2024-02-21T08:51:56;2.43;;;2.23;;
15230;SDS011;32569;51.762;8.564;2024-02-21T08:54:22;2.30;;;2.10;;
15230;SDS011;32569;51.762;8.564;2024-02-21T08:56:49;1.97;;;1.87;;
15230;SDS011;32569;51.762;8.564;2024-02-21T08:59:17;3.93;;;2.23;;
15230;SDS011;32569;51.762;8.564;2024-02-21T09:01:44;1.70;;;1.60;;
15230;SDS011;32569;51.762;8.564;2024-02-21T09:04:11;1.87;;;1.77;;
15230;SDS011;32569;51.762;8.564;2024-02-21T09:06:37;1.80;;;1.70;;
15230;SDS011;32569;51.762;8.564;2024-02-21T09:09:07;1.77;;;1.70;;
15230;SDS011;32569;51.762;8.564;2024-02-21T09:11:34;1.90;;;1.80;;
15230;SDS011;32569;51.762;8.564;2024-02-21T09:14:02;1.80;;;1.70;;
15230;SDS011;32569;51.762;8.564;2024-02-21T09:16:30;1.30;;;1.30;;
15230;SDS011;32569;51.762;8.564;2024-02-21T09:18:57;1.73;;;1.63;;
15230;SDS011;32569;51.762;8.564;2024-02-21T09:21:24;1.53;;;1.53;;
15230;SDS011;32569;51.762;8.564;2024-02-21T09:23:50;2.03;;;1.90;;
15230;SDS011;32569;51.762;8.564;2024-02-21T09:26:17;1.90;;;1.80;;
15230;SDS011;32569;51.762;8.564;2024-02-21T09:28:44;2.10;;;2.00;;
15230;SDS011;32569;51.762;8.564;2024-02-21T09:31:11;2.10;;;2.00;;
15230;SDS011;32569;51.762;8.564;2024-02-21T09:33:38;2.03;;;1.93;;
15230;SDS011;32569;51.762;8.564;2024-02-21T09:36:06;2.40;;;2.30;;
15230;SDS011;32569;51.762;8.564;2024-02-21T09:38:33;2.67;;;2.47;;
15230;SDS011;32569;51.762;8.564;2024-02-21T09:41:00;3.43;;;2.77;;
15230;SDS011;32569;51.762;8.564;2024-02-21T09:43:35;3.40;;;3.20;;
15230;SDS011;32569;51.762;8.564;2024-02-21T09:46:05;2.93;;;2.73;;
15230;SDS011;32569;51.762;8.564;2024-02-21T09:48:41;3.13;;;2.93;;
15230;SDS011;32569;51.762;8.564;2024-02-21T09:51:19;3.80;;;3.50;;
15230;SDS011;32569;51.762;8.564;2024-02-21T09:53:47;3.10;;;2.90;;
15230;SDS011;32569;51.762;8.564;2024-02-21T09:56:14;2.97;;;2.83;;
15230;SDS011;32569;51.762;8.564;2024-02-21T09:58:41;3.00;;;2.80;;
15230;SDS011;32569;51.762;8.564;2024-02-21T10:01:08;2.83;;;2.63;;
15230;SDS011;32569;51.762;8.564;2024-02-21T10:03:35;2.90;;;2.70;;
15230;SDS011;32569;51.762;8.564;2024-02-21T10:06:03;3.17;;;2.97;;
15230;SDS011;32569;51.762;8.564;2024-02-21T10:08:30;2.90;;;2.80;;
15230;SDS011;32569;51.762;8.564;2024-02-21T10:10:56;3.50;;;3.30;;
15230;SDS011;32569;51.762;8.564;2024-02-21T10:13:25;3.30;;;3.10;;
15230;SDS011;32569;51.762;8.564;2024-02-21T10:16:02;2.73;;;2.53;;
15230;SDS011;32569;51.762;8.564;2024-02-21T10:18:30;3.27;;;3.07;;
15230;SDS011;32569;51.762;8.564;2024-02-21T10:21:02;2.40;;;2.30;;
15230;SDS011;32569;51.762;8.564;2024-02-21T10:23:40;3.07;;;2.77;;
15230;SDS011;32569;51.762;8.564;2024-02-21T10:26:10;2.50;;;2.40;;
15230;SDS011;32569;51.762;8.564;2024-02-21T10:28:37;2.60;;;2.40;;
15230;SDS011;32569;51.762;8.564;2024-02-21T10:31:07;2.27;;;2.17;;
15230;SDS011;32569;51.762;8.564;2024-02-21T10:33:34;2.50;;;2.30;;
15230;SDS011;32569;51.762;8.564;2024-02-21T10:36:09;2.97;;;2.40;;
15230;SDS011;32569;51.762;8.564;2024-02-21T10:38:37;2.17;;;2.07;;
15230;SDS011;32569;51.762;8.564;2024-02-21T10:41:04;2.20;;;2.10;;
15230;SDS011;32569;51.762;8.564;2024-02-21T10:43:33;2.40;;;2.30;;
15230;SDS011;32569;51.762;8.564;2024-02-21T10:46:07;1.97;;;1.87;;
15230;SDS011;32569;51.762;8.564;2024-02-21T10:48:38;2.57;;;1.97;;
15230;SDS011;32569;51.762;8.564;2024-02-21T10:51:13;1.90;;;1.80;;
15230;SDS011;32569;51.762;8.564;2024-02-21T10:53:44;1.90;;;1.80;;
15230;SDS011;32569;51.762;8.564;2024-02-21T10:56:16;1.70;;;1.60;;
15230;SDS011;32569;51.762;8.564;2024-02-21T10:58:52;1.93;;;1.70;;
15230;SDS011;32569;51.762;8.564;2024-02-21T11:01:20;1.90;;;1.70;;
15230;SDS011;32569;51.762;8.564;2024-02-21T11:03:48;1.63;;;1.53;;
15230;SDS011;32569;51.762;8.564;2024-02-21T11:06:18;1.50;;;1.50;;
15230;SDS011;32569;51.762;8.564;2024-02-21T11:08:46;1.73;;;1.63;;
15230;SDS011;32569;51.762;8.564;2024-02-21T11:11:14;1.37;;;1.30;;
15230;SDS011;32569;51.762;8.564;2024-02-21T11:13:43;1.87;;;1.77;;
15230;SDS011;32569;51.762;8.564;2024-02-21T11:16:12;2.20;;;2.00;;
15230;SDS011;32569;51.762;8.564;2024-02-21T11:18:48;1.63;;;1.53;;
15230;SDS011;32569;51.762;8.564;2024-02-21T11:21:15;1.70;;;1.60;;
15230;SDS011;32569;51.762;8.564;2024-02-21T11:23:43;1.60;;;1.50;;
15230;SDS011;32569;51.762;8.564;2024-02-21T11:26:10;1.20;;;1.20;;
15230;SDS011;32569;51.762;8.564;2024-02-21T11:28:44;1.40;;;1.30;;
15230;SDS011;32569;51.762;8.564;2024-02-21T11:31:11;1.10;;;1.10;;
15230;SDS011;32569;51.762;8.564;2024-02-21T11:33:39;1.20;;;1.20;;
15230;SDS011;32569;51.762;8.564;2024-02-21T11:36:07;1.20;;;1.20;;
15230;SDS011;32569;51.762;8.564;2024-02-21T11:38:34;1.40;;;1.30;;
15230;SDS011;32569;51.762;8.564;2024-02-21T11:41:02;1.40;;;1.30;;
15230;SDS011;32569;51.762;8.564;2024-02-21T11:43:34;1.50;;;1.40;;
15230;SDS011;32569;51.762;8.564;2024-02-21T11:46:00;1.40;;;1.30;;
15230;SDS011;32569;51.762;8.564;2024-02-21T11:48:28;1.50;;;1.40;;
15230;SDS011;32569;51.762;8.564;2024-02-21T11:50:55;1.30;;;1.30;;
15230;SDS011;32569;51.762;8.564;2024-02-21T11:53:22;1.10;;;1.10;;
15230;SDS011;32569;51.762;8.564;2024-02-21T11:55:49;1.60;;;1.50;;
15230;SDS011;32569;51.762;8.564;2024-02-21T11:58:17;1.20;;;1.20;;
15230;SDS011;32569;51.762;8.564;2024-02-21T12:00:44;1.10;;;1.07;;
15230;SDS011;32569;51.762;8.564;2024-02-21T12:03:10;1.33;;;1.13;;
15230;SDS011;32569;51.762;8.564;2024-02-21T12:05:37;1.47;;;1.37;;
15230;SDS011;32569;51.762;8.564;2024-02-21T12:08:04;1.23;;;1.23;;
15230;SDS011;32569;51.762;8.564;2024-02-21T12:10:31;1.23;;;1.23;;
15230;SDS011;32569;51.762;8.564;2024-02-21T12:13:05;1.27;;;1.20;;
15230;SDS011;32569;51.762;8.564;2024-02-21T12:15:33;1.47;;;1.20;;
15230;SDS011;32569;51.762;8.564;2024-02-21T12:18:00;1.73;;;1.63;;
15230;SDS011;32569;51.762;8.564;2024-02-21T12:20:27;1.33;;;1.23;;
15230;SDS011;32569;51.762;8.564;2024-02-21T12:22:53;1.50;;;1.40;;
15230;SDS011;32569;51.762;8.564;2024-02-21T12:25:21;1.60;;;1.60;;
15230;SDS011;32569;51.762;8.564;2024-02-21T12:27:50;1.80;;;1.70;;
15230;SDS011;32569;51.762;8.564;2024-02-21T12:30:18;1.67;;;1.57;;
15230;SDS011;32569;51.762;8.564;2024-02-21T12:32:46;1.70;;;1.60;;
15230;SDS011;32569;51.762;8.564;2024-02-21T12:35:14;1.80;;;1.63;;
15230;SDS011;32569;51.762;8.564;2024-02-21T12:37:42;1.70;;;1.60;;
15230;SDS011;32569;51.762;8.564;2024-02-21T12:40:09;1.50;;;1.40;;
15230;SDS011;32569;51.762;8.564;2024-02-21T12:42:38;1.50;;;1.40;;
15230;SDS011;32569;51.762;8.564;2024-02-21T12:45:05;1.90;;;1.43;;
15230;SDS011;32569;51.762;8.564;2024-02-21T12:47:32;1.70;;;1.60;;
15230;SDS011;32569;51.762;8.564;2024-02-21T12:50:01;1.40;;;1.30;;
15230;SDS011;32569;51.762;8.564;2024-02-21T12:52:29;1.67;;;1.57;;
15230;SDS011;32569;51.762;8.564;2024-02-21T12:54:56;1.30;;;1.20;;
15230;SDS011;32569;51.762;8.564;2024-02-21T12:57:23;1.60;;;1.50;;
15230;SDS011;32569;51.762;8.564;2024-02-21T12:59:50;1.40;;;1.30;;
15230;SDS011;32569;51.762;8.564;2024-02-21T13:02:17;1.27;;;1.20;;
15230;SDS011;32569;51.762;8.564;2024-02-21T13:04:44;1.30;;;1.30;;
15230;SDS011;32569;51.762;8.564;2024-02-21T13:07:14;1.50;;;1.40;;
15230;SDS011;32569;51.762;8.564;2024-02-21T13:09:40;1.60;;;1.50;;
15230;SDS011;32569;51.762;8.564;2024-02-21T13:12:07;1.53;;;1.43;;
15230;SDS011;32569;51.762;8.564;2024-02-21T13:14:34;1.50;;;1.40;;
15230;SDS011;32569;51.762;8.564;2024-02-21T13:17:06;1.53;;;1.43;;
15230;SDS011;32569;51.762;8.564;2024-02-21T13:19:32;1.60;;;1.50;;
15230;SDS011;32569;51.762;8.564;2024-02-21T13:21:59;1.50;;;1.40;;
15230;SDS011;32569;51.762;8.564;2024-02-21T13:24:29;1.90;;;1.60;;
15230;SDS011;32569;51.762;8.564;2024-02-21T13:26:56;1.17;;;1.17;;
15230;SDS011;32569;51.762;8.564;2024-02-21T13:29:23;1.43;;;1.30;;
15230;SDS011;32569;51.762;8.564;2024-02-21T13:31:49;1.57;;;1.47;;
15230;SDS011;32569;51.762;8.564;2024-02-21T13:34:16;1.43;;;1.33;;
15230;SDS011;32569;51.762;8.564;2024-02-21T13:36:43;1.50;;;1.40;;
15230;SDS011;32569;51.762;8.564;2024-02-21T13:39:10;1.33;;;1.23;;
15230;SDS011;32569;51.762;8.564;2024-02-21T13:41:41;1.73;;;1.63;;
15230;SDS011;32569;51.762;8.564;2024-02-21T13:44:08;1.10;;;1.10;;
15230;SDS011;32569;51.762;8.564;2024-02-21T13:46:35;1.83;;;1.70;;
15230;SDS011;32569;51.762;8.564;2024-02-21T13:49:02;1.63;;;1.47;;
15230;SDS011;32569;51.762;8.564;2024-02-21T13:51:31;1.33;;;1.30;;
15230;SDS011;32569;51.762;8.564;2024-02-21T13:53:58;1.47;;;1.30;;
15230;SDS011;32569;51.762;8.564;2024-02-21T13:56:25;2.10;;;1.67;;
15230;SDS011;32569;51.762;8.564;2024-02-21T13:58:53;1.30;;;1.20;;
15230;SDS011;32569;51.762;8.564;2024-02-21T14:01:20;1.40;;;1.30;;
15230;SDS011;32569;51.762;8.564;2024-02-21T14:03:46;1.67;;;1.57;;
15230;SDS011;32569;51.762;8.564;2024-02-21T14:06:13;1.47;;;1.37;;
15230;SDS011;32569;51.762;8.564;2024-02-21T14:08:40;1.20;;;1.20;;
15230;SDS011;32569;51.762;8.564;2024-02-21T14:11:06;1.77;;;1.43;;
15230;SDS011;32569;51.762;8.564;2024-02-21T14:13:33;1.30;;;1.20;;
15230;SDS011;32569;51.762;8.564;2024-02-21T14:16:02;1.80;;;1.67;;
15230;SDS011;32569;51.762;8.564;2024-02-21T14:18:36;1.50;;;1.40;;
15230;SDS011;32569;51.762;8.564;2024-02-21T14:21:03;1.20;;;1.20;;
15230;SDS011;32569;51.762;8.564;2024-02-21T14:23:29;1.50;;;1.40;;
15230;SDS011;32569;51.762;8.564;2024-02-21T14:25:58;2.03;;;1.93;;
15230;SDS011;32569;51.762;8.564;2024-02-21T14:28:25;1.60;;;1.50;;
15230;SDS011;32569;51.762;8.564;2024-02-21T14:30:51;2.20;;;1.30;;
15230;SDS011;32569;51.762;8.564;2024-02-21T14:33:25;1.40;;;1.30;;
15230;SDS011;32569;51.762;8.564;2024-02-21T14:35:52;1.30;;;1.30;;
15230;SDS011;32569;51.762;8.564;2024-02-21T14:38:19;1.10;;;1.10;;
15230;SDS011;32569;51.762;8.564;2024-02-21T14:40:45;1.27;;;1.10;;
15230;SDS011;32569;51.762;8.564;2024-02-21T14:43:12;1.80;;;1.70;;
15230;SDS011;32569;51.762;8.564;2024-02-21T14:45:38;1.10;;;1.10;;
15230;SDS011;32569;51.762;8.564;2024-02-21T14:48:05;1.13;;;1.13;;
15230;SDS011;32569;51.762;8.564;2024-02-21T14:50:34;1.40;;;1.30;;